Time;durP1;ratioP1;P1;durP2;ratioP2;P2;SDS_P1;SDS_P2;PMS_P1;PMS_P2;Temp;Humidity;BMP_temperature;BMP_pressure;BME280_temperature;BME280_humidity;BME280_pressure;Samples;Min_cycle;Max_cycle;Signal;HPM_P1;HPM_P2
2023/08/22 00:02:23;;;;;;;11.57;7.35;;;;;;;19.37;100.00;93444.63;5061292;28;20090;-78
2023/08/22 00:04:51;;;;;;;10.55;8.05;;;;;;;19.29;100.00;93432.91;5056464;28;20056;-78
2023/08/22 00:07:17;;;;;;;12.75;7.90;;;;;;;19.33;100.00;93444.38;5053522;28;20053;-78
2023/08/22 00:09:44;;;;;;;9.88;7.50;;;;;;;19.31;100.00;93448.28;5054023;28;20045;-78
2023/08/22 00:12:11;;;;;;;10.02;8.27;;;;;;;19.27;100.00;93450.63;5056168;28;20053;-78
2023/08/22 00:14:39;;;;;;;9.52;7.75;;;;;;;19.26;100.00;93453.47;5057306;28;20492;-78
2023/08/22 00:17:08;;;;;;;9.30;7.88;;;;;;;19.20;100.00;93456.06;5051109;28;20060;-77
2023/08/22 00:19:35;;;;;;;10.10;8.00;;;;;;;19.18;100.00;93459.97;5055456;28;20037;-78
2023/08/22 00:22:03;;;;;;;11.27;8.38;;;;;;;19.15;100.00;93455.25;5056582;28;20053;-78
2023/08/22 00:24:30;;;;;;;10.38;8.07;;;;;;;19.13;100.00;93452.94;5051562;28;20497;-78
2023/08/22 00:26:58;;;;;;;9.18;7.22;;;;;;;19.12;100.00;93455.78;5052741;28;20045;-77
2023/08/22 00:29:25;;;;;;;9.07;7.78;;;;;;;19.10;100.00;93453.44;5054933;28;20049;-77
2023/08/22 00:31:53;;;;;;;11.05;7.88;;;;;;;19.16;100.00;93449.03;5049579;28;20053;-78
2023/08/22 00:34:19;;;;;;;11.95;8.55;;;;;;;19.10;100.00;93445.63;5055143;28;20037;-77
2023/08/22 00:36:46;;;;;;;10.30;8.82;;;;;;;19.07;100.00;93443.53;5054288;28;20174;-77
2023/08/22 00:39:13;;;;;;;11.77;8.00;;;;;;;19.05;100.00;93445.59;5051676;28;20130;-78
2023/08/22 00:41:40;;;;;;;11.00;8.20;;;;;;;19.07;100.00;93452.13;5060792;28;20051;-78
2023/08/22 00:44:07;;;;;;;11.40;8.77;;;;;;;19.08;100.00;93448.47;5052219;28;20123;-78
2023/08/22 00:46:34;;;;;;;10.65;8.45;;;;;;;19.06;100.00;93452.38;5052453;28;20554;-77
2023/08/22 00:49:04;;;;;;;10.63;8.07;;;;;;;19.05;100.00;93448.22;5058827;28;20048;-78
2023/08/22 00:51:31;;;;;;;9.57;8.60;;;;;;;18.91;100.00;93447.88;5054434;28;20041;-78
2023/08/22 00:53:59;;;;;;;11.23;8.82;;;;;;;18.92;100.00;93437.22;5051834;28;20045;-77
2023/08/22 00:56:26;;;;;;;10.43;8.73;;;;;;;18.94;100.00;93444.78;5052773;28;20107;-77
2023/08/22 00:58:53;;;;;;;13.10;9.35;;;;;;;18.89;100.00;93447.38;5050433;28;20056;-78
2023/08/22 01:01:20;;;;;;;12.27;8.80;;;;;;;18.88;100.00;93440.59;5054412;28;20041;-78
2023/08/22 01:03:47;;;;;;;11.85;8.38;;;;;;;18.92;100.00;93439.03;5050621;28;20049;-77
2023/08/22 01:06:27;;;;;;;9.57;8.13;;;;;;;18.98;100.00;93437.22;5050218;28;20509;-77
2023/08/22 01:08:59;;;;;;;13.95;8.80;;;;;;;18.95;100.00;93448.94;5054091;28;20141;-77
2023/08/22 01:11:33;;;;;;;11.38;8.57;;;;;;;18.77;100.00;93421.56;5052047;28;20040;-77
2023/08/22 01:14:05;;;;;;;9.93;7.55;;;;;;;18.90;100.00;93448.91;5057033;28;20045;-77
2023/08/22 01:16:33;;;;;;;11.73;7.72;;;;;;;18.82;100.00;93443.19;5054746;28;20803;-77
2023/08/22 01:19:02;;;;;;;11.95;8.07;;;;;;;18.70;100.00;93438.19;5051179;28;20056;-77
2023/08/22 01:21:33;;;;;;;11.00;8.82;;;;;;;18.75;100.00;93445.22;5053979;28;20049;-77
2023/08/22 01:24:02;;;;;;;10.90;9.00;;;;;;;18.74;100.00;93440.28;5059514;28;20054;-77
2023/08/22 01:26:29;;;;;;;12.60;8.73;;;;;;;18.66;100.00;93441.56;5059522;28;20132;-77
2023/08/22 01:29:01;;;;;;;10.45;8.40;;;;;;;18.70;100.00;93448.59;5051092;28;20053;-77
2023/08/22 01:31:33;;;;;;;9.82;8.50;;;;;;;18.67;100.00;93443.91;5063626;28;20045;-78
2023/08/22 01:34:06;;;;;;;12.02;8.95;;;;;;;18.64;100.00;93441.81;5048867;28;20060;-77
2023/08/22 01:36:35;;;;;;;13.20;9.18;;;;;;;18.62;100.00;93443.88;5049133;28;20048;-77
2023/08/22 01:39:07;;;;;;;10.88;8.35;;;;;;;18.62;100.00;93440.50;5048320;28;20095;-77
2023/08/22 01:41:34;;;;;;;10.10;8.25;;;;;;;18.57;100.00;93441.25;5049615;28;20049;-77
2023/08/22 01:44:03;;;;;;;11.13;8.95;;;;;;;18.57;100.00;93443.88;5059441;28;20456;-77
2023/08/22 01:46:29;;;;;;;10.68;8.32;;;;;;;18.51;100.00;93445.66;5065825;28;20059;-77
2023/08/22 01:48:58;;;;;;;9.90;8.90;;;;;;;18.51;100.00;93457.88;5052500;28;20052;-78
2023/08/22 01:51:24;;;;;;;10.98;8.90;;;;;;;18.48;100.00;93450.56;5047540;28;21050;-77
2023/08/22 01:53:51;;;;;;;10.40;8.90;;;;;;;18.45;100.00;93456.28;5054081;28;20049;-78
2023/08/22 01:56:19;;;;;;;11.85;8.82;;;;;;;18.49;100.00;93452.13;5056635;28;20046;-78
2023/08/22 01:58:47;;;;;;;11.13;8.77;;;;;;;18.39;100.00;93443.25;5048352;28;20045;-77
2023/08/22 02:01:14;;;;;;;13.98;9.68;;;;;;;18.48;100.00;93453.19;5048254;28;20091;-77
2023/08/22 02:03:42;;;;;;;17.38;9.90;;;;;;;18.47;100.00;93452.38;5052029;28;20049;-77
2023/08/22 02:06:09;;;;;;;10.50;9.15;;;;;;;18.36;100.00;93437.75;5059134;28;20463;-77
2023/08/22 02:08:37;;;;;;;10.52;9.07;;;;;;;18.47;100.00;93441.97;5053839;28;20060;-77
2023/08/22 02:11:04;;;;;;;10.57;8.82;;;;;;;18.40;100.00;93441.44;5047676;28;20094;-77
2023/08/22 02:13:32;;;;;;;12.88;8.85;;;;;;;18.46;100.00;93439.66;5047310;28;20055;-77
2023/08/22 02:16:02;;;;;;;9.80;8.25;;;;;;;18.40;100.00;93447.44;5051567;28;20171;-78
2023/08/22 02:18:29;;;;;;;12.65;9.27;;;;;;;18.38;100.00;93451.31;5053835;28;20045;-77
2023/08/22 02:20:57;;;;;;;10.63;8.95;;;;;;;18.35;100.00;93449.19;5049503;28;20052;-77
2023/08/22 02:23:26;;;;;;;12.10;8.73;;;;;;;18.33;100.00;93456.47;5054038;28;20049;-77
2023/08/22 02:25:55;;;;;;;10.10;8.80;;;;;;;18.29;100.00;93448.41;5048008;28;20111;-77
2023/08/22 02:28:22;;;;;;;13.75;8.90;;;;;;;18.28;100.00;93452.03;5050188;28;20044;-77
2023/08/22 02:30:55;;;;;;;10.60;8.02;;;;;;;18.15;100.00;93435.06;5059750;28;20447;-78
2023/08/22 02:33:22;;;;;;;10.60;9.25;;;;;;;18.22;100.00;93442.63;5056922;28;20045;-77
2023/08/22 02:35:49;;;;;;;11.07;9.07;;;;;;;18.21;100.00;93441.06;5052456;28;20102;-77
2023/08/22 02:38:16;;;;;;;11.23;8.55;;;;;;;18.20;100.00;93442.91;5047483;28;20048;-77
2023/08/22 02:40:43;;;;;;;11.75;8.95;;;;;;;18.00;100.00;93410.50;5049477;28;20094;-77
2023/08/22 02:43:09;;;;;;;11.98;8.60;;;;;;;18.18;100.00;93442.34;5047604;28;20075;-78
2023/08/22 02:45:37;;;;;;;10.57;8.50;;;;;;;17.97;100.00;93420.63;5047170;28;20860;-78
2023/08/22 02:48:06;;;;;;;11.98;8.63;;;;;;;18.13;100.00;93452.72;5047382;28;20555;-77
2023/08/22 02:50:33;;;;;;;13.30;9.88;;;;;;;18.10;100.00;93450.63;5052325;28;20048;-77
2023/08/22 02:52:59;;;;;;;13.73;9.13;;;;;;;18.03;100.00;93441.22;5049342;28;20497;-77
2023/08/22 02:55:26;;;;;;;11.45;9.02;;;;;;;18.02;100.00;93444.06;5051617;28;20045;-78
2023/08/22 02:57:53;;;;;;;12.90;9.00;;;;;;;18.01;100.00;93451.06;5048432;28;20543;-78
2023/08/22 03:00:19;;;;;;;10.55;9.38;;;;;;;17.98;100.00;93442.97;5049073;28;20059;-78
2023/08/22 03:02:46;;;;;;;11.70;9.48;;;;;;;17.98;100.00;93440.38;5049809;28;20087;-78
2023/08/22 03:05:14;;;;;;;11.45;8.43;;;;;;;17.97;100.00;93444.03;5053821;28;20501;-78
2023/08/22 03:07:41;;;;;;;11.00;9.15;;;;;;;17.94;100.00;93447.09;5050956;28;20099;-77
2023/08/22 03:10:09;;;;;;;10.93;9.38;;;;;;;17.94;100.00;93450.50;5051206;28;20053;-77
2023/08/22 03:12:36;;;;;;;11.73;9.07;;;;;;;17.95;100.00;93456.50;5052071;28;20056;-78
2023/08/22 03:15:03;;;;;;;11.55;9.27;;;;;;;17.95;100.00;93456.50;5051721;28;20045;-78
2023/08/22 03:17:30;;;;;;;18.08;9.95;;;;;;;17.93;100.00;93458.53;5051574;28;20045;-78
2023/08/22 03:19:57;;;;;;;13.73;9.20;;;;;;;17.93;100.00;93461.13;5057687;28;20102;-78
2023/08/22 03:22:25;;;;;;;11.77;9.57;;;;;;;17.86;100.00;93456.94;5052882;28;20060;-78
2023/08/22 03:24:52;;;;;;;13.38;9.48;;;;;;;17.85;100.00;93464.97;5051868;28;20057;-78
2023/08/22 03:27:19;;;;;;;11.43;8.90;;;;;;;17.80;100.00;93462.34;5052644;28;20040;-78
2023/08/22 03:29:46;;;;;;;11.88;9.27;;;;;;;17.81;100.00;93471.72;5052920;28;20103;-78
2023/08/22 03:32:12;;;;;;;10.88;9.13;;;;;;;17.81;100.00;93466.53;5054657;28;20045;-78
2023/08/22 03:34:39;;;;;;;14.75;9.23;;;;;;;17.83;100.00;93464.44;5050900;28;20107;-78
2023/08/22 03:37:06;;;;;;;10.77;9.25;;;;;;;17.80;100.00;93476.13;5053096;28;20460;-78
2023/08/22 03:39:35;;;;;;;12.98;9.60;;;;;;;17.80;100.00;93472.72;5052107;28;20041;-77
2023/08/22 03:42:02;;;;;;;11.70;8.95;;;;;;;17.76;100.00;93475.03;5049945;28;20037;-77
2023/08/22 03:44:30;;;;;;;11.60;8.20;;;;;;;17.75;100.00;93478.69;5050538;28;20057;-77
2023/08/22 03:46:57;;;;;;;13.52;9.32;;;;;;;17.67;100.00;93458.34;5066499;28;20101;-77
2023/08/22 03:49:24;;;;;;;13.18;9.23;;;;;;;17.72;100.00;93469.56;5059577;28;20566;-77
2023/08/22 03:51:50;;;;;;;16.13;8.13;;;;;;;17.60;100.00;93459.31;5050674;28;20049;-77
2023/08/22 03:54:17;;;;;;;11.38;9.25;;;;;;;17.67;100.00;93471.34;5050517;28;20095;-77
2023/08/22 03:56:45;;;;;;;12.10;9.40;;;;;;;17.60;100.00;93467.13;5050781;28;20049;-77
2023/08/22 03:59:12;;;;;;;11.82;9.65;;;;;;;17.62;100.00;93469.47;5052258;28;20048;-78
2023/08/22 04:01:38;;;;;;;10.85;9.63;;;;;;;17.61;100.00;93467.91;5055046;28;20106;-78
2023/08/22 04:04:05;;;;;;;12.40;9.10;;;;;;;17.62;100.00;93472.88;5058567;28;20049;-78
2023/08/22 04:06:32;;;;;;;13.25;8.73;;;;;;;17.63;100.00;93471.03;5055864;28;20427;-78
2023/08/22 04:08:58;;;;;;;12.32;9.02;;;;;;;17.63;100.00;93482.22;5058016;28;20068;-78
2023/08/22 04:11:25;;;;;;;14.88;9.48;;;;;;;17.68;100.00;93478.09;5055147;28;20563;-78
2023/08/22 04:13:53;;;;;;;15.23;9.82;;;;;;;17.69;100.00;93475.25;5052530;28;20835;-80
2023/08/22 04:16:20;;;;;;;12.10;9.27;;;;;;;17.72;100.00;93472.16;5056537;28;20497;-79
2023/08/22 04:18:47;;;;;;;14.95;9.38;;;;;;;17.75;100.00;93465.69;5050983;28;20102;-79
2023/08/22 04:21:14;;;;;;;17.70;9.57;;;;;;;17.80;100.00;93470.13;5050379;28;20048;-79
2023/08/22 04:23:41;;;;;;;12.88;9.48;;;;;;;17.81;100.00;93472.47;5052669;28;20501;-79
2023/08/22 04:26:07;;;;;;;14.35;9.80;;;;;;;17.82;100.00;93466.25;5052799;28;20102;-79
2023/08/22 04:28:36;;;;;;;16.25;9.18;;;;;;;17.93;100.00;93468.94;5051990;28;20041;-79
2023/08/22 04:31:04;;;;;;;16.27;9.05;;;;;;;17.95;100.00;93480.66;5050947;28;20087;-79
2023/08/22 04:33:31;;;;;;;18.73;9.98;;;;;;;17.97;100.00;93477.81;5053801;28;20041;-79
2023/08/22 04:35:58;;;;;;;12.77;8.98;;;;;;;17.99;100.00;93478.31;5051649;28;20040;-79
2023/08/22 04:38:27;;;;;;;15.70;10.50;;;;;;;18.02;100.00;93483.03;5054955;28;20421;-80
2023/08/22 04:40:54;;;;;;;12.60;9.45;;;;;;;18.07;100.00;93483.09;5051718;28;20053;-80
2023/08/22 04:43:20;;;;;;;11.98;9.63;;;;;;;17.97;100.00;93475.97;5050700;28;20142;-81
2023/08/22 04:45:50;;;;;;;14.77;9.35;;;;;;;18.11;100.00;93486.00;5054905;28;20103;-80
2023/08/22 04:48:20;;;;;;;11.50;9.18;;;;;;;18.11;100.00;93486.00;5059424;28;20048;-80
2023/08/22 04:50:46;;;;;;;16.92;9.93;;;;;;;18.19;100.00;93480.31;5051631;28;20079;-80
2023/08/22 04:53:13;;;;;;;14.85;8.93;;;;;;;18.33;100.00;93490.28;5049221;28;20045;-80
2023/08/22 04:55:43;;;;;;;16.25;10.45;;;;;;;18.39;100.00;93490.06;5054258;28;20561;-82
2023/08/22 04:58:09;;;;;;;14.13;9.38;;;;;;;18.46;100.00;93479.44;5048917;28;20546;-80
2023/08/22 05:00:36;;;;;;;15.07;9.93;;;;;;;18.59;100.00;93491.22;5060450;28;20052;-80
2023/08/22 05:03:05;;;;;;;12.02;8.90;;;;;;;18.44;100.00;93458.09;5051192;28;20563;-80
2023/08/22 05:05:33;;;;;;;16.60;10.80;;;;;;;18.66;100.00;93498.78;5058031;28;20041;-81
2023/08/22 05:08:00;;;;;;;15.25;10.93;;;;;;;18.41;100.00;93493.19;5062588;28;20040;-79
2023/08/22 05:10:27;;;;;;;13.90;10.57;;;;;;;18.41;100.00;93497.59;5049865;28;20452;-79
2023/08/22 05:12:54;;;;;;;16.80;11.50;;;;;;;18.55;100.00;93492.75;5053235;28;20122;-79
2023/08/22 05:15:20;;;;;;;14.07;11.82;;;;;;;18.68;100.00;93497.50;5054077;28;20053;-79
2023/08/22 05:17:47;;;;;;;15.00;11.77;;;;;;;18.83;100.00;93504.59;5059329;28;20053;-78
2023/08/22 05:20:14;;;;;;;15.88;10.88;;;;;;;18.94;100.00;93496.84;5049700;28;20489;-78
2023/08/22 05:22:42;;;;;;;15.90;10.77;;;;;;;19.09;100.00;93490.94;5055955;28;20052;-77
2023/08/22 05:25:09;;;;;;;16.35;12.50;;;;;;;19.22;100.00;93489.66;5048906;28;20053;-77
2023/08/22 05:27:36;;;;;;;14.25;10.70;;;;;;;19.30;100.00;93494.34;5048129;28;20049;-77
2023/08/22 05:30:03;;;;;;;13.20;11.18;;;;;;;19.42;100.00;93490.72;5052871;28;20088;-77
2023/08/22 05:32:30;;;;;;;12.45;10.65;;;;;;;19.50;100.00;93493.63;5052106;28;20052;-78
2023/08/22 05:34:57;;;;;;;14.63;10.30;;;;;;;19.61;100.00;93489.22;5050778;28;20045;-78
2023/08/22 05:37:24;;;;;;;12.95;10.57;;;;;;;19.77;100.00;93484.78;5055819;28;20055;-78
2023/08/22 05:39:52;;;;;;;16.23;11.45;;;;;;;19.79;100.00;93476.72;5048347;28;20048;-78
2023/08/22 05:42:21;;;;;;;17.83;11.27;;;;;;;20.01;100.00;93492.09;5053362;28;20037;-78
2023/08/22 05:44:47;;;;;;;14.98;10.18;;;;;;;20.12;100.00;93479.84;5050030;28;20049;-77
2023/08/22 05:47:14;;;;;;;14.63;11.10;;;;;;;20.30;100.00;93485.56;5049779;28;20480;-77
2023/08/22 05:49:43;;;;;;;18.25;10.98;;;;;;;20.39;100.00;93483.19;5052743;28;20102;-77
2023/08/22 05:52:09;;;;;;;18.00;10.60;;;;;;;20.55;100.00;93487.34;5050391;28;20088;-79
2023/08/22 05:54:36;;;;;;;16.52;10.60;;;;;;;20.70;100.00;93483.13;5058817;28;20049;-80
2023/08/22 05:57:04;;;;;;;17.10;10.98;;;;;;;20.88;100.00;93491.44;5048562;28;20790;-77
2023/08/22 05:59:31;;;;;;;20.63;10.60;;;;;;;21.02;100.00;93484.59;5051933;28;20117;-78
2023/08/22 06:01:58;;;;;;;15.98;10.75;;;;;;;21.17;100.00;93481.16;5059442;28;20052;-77
2023/08/22 06:04:25;;;;;;;16.15;10.20;;;;;;;21.33;100.00;93471.38;5053790;28;20122;-79
2023/08/22 06:06:51;;;;;;;13.90;9.85;;;;;;;21.53;100.00;93481.97;5058516;28;20512;-78
2023/08/22 06:09:18;;;;;;;12.55;10.10;;;;;;;21.63;100.00;93474.06;5054057;28;20048;-78
2023/08/22 06:11:45;;;;;;;18.75;9.60;;;;;;;21.88;100.00;93485.41;5053615;28;20052;-78
2023/08/22 06:14:13;;;;;;;13.85;9.07;;;;;;;22.03;100.00;93485.28;5047894;28;20049;-78
2023/08/22 06:16:40;;;;;;;14.15;8.55;;;;;;;22.24;100.00;93490.34;5047507;28;20194;-78
2023/08/22 06:19:07;;;;;;;12.85;9.52;;;;;;;22.42;100.00;93490.72;5051508;28;20072;-79
2023/08/22 06:21:33;;;;;;;12.25;8.50;;;;;;;22.55;100.00;93484.84;5050850;28;21018;-78
2023/08/22 06:24:00;;;;;;;11.02;8.32;;;;;;;22.74;100.00;93484.13;5048093;28;20045;-80
2023/08/22 06:26:27;;;;;;;12.07;7.90;;;;;;;22.98;100.00;93483.31;5049975;28;20053;-80
2023/08/22 06:28:57;;;;;;;14.30;8.55;;;;;;;23.14;100.00;93473.41;5053996;28;20049;-80
2023/08/22 06:31:26;;;;;;;16.73;8.75;;;;;;;23.40;100.00;93473.13;5051845;28;20131;-80
2023/08/22 06:33:52;;;;;;;18.27;9.02;;;;;;;23.64;99.14;93471.47;5053752;28;20054;-80
2023/08/22 06:36:19;;;;;;;13.35;8.50;;;;;;;23.76;98.24;93482.31;5053724;28;20057;-80
2023/08/22 06:38:46;;;;;;;10.55;7.28;;;;;;;23.97;96.40;93472.25;5050393;28;20091;-80
2023/08/22 06:41:12;;;;;;;10.57;7.93;;;;;;;24.05;95.78;93462.97;5057039;28;20045;-79
2023/08/22 06:43:39;;;;;;;15.70;8.30;;;;;;;24.11;95.29;93464.44;5049419;28;20045;-80
2023/08/22 06:46:09;;;;;;;11.32;8.02;;;;;;;24.48;92.19;93477.72;5046701;28;20054;-80
2023/08/22 06:48:37;;;;;;;12.48;7.60;;;;;;;24.63;91.65;93470.66;5051401;28;20106;-79
2023/08/22 06:51:03;;;;;;;12.65;7.55;;;;;;;24.64;90.55;93474.81;5060550;28;20122;-79
2023/08/22 06:53:30;;;;;;;9.98;7.20;;;;;;;24.89;91.13;93481.47;5047594;28;20040;-79
2023/08/22 06:55:57;;;;;;;9.88;7.95;;;;;;;24.93;90.84;93468.50;5047280;28;20049;-78
2023/08/22 06:58:24;;;;;;;12.55;7.70;;;;;;;25.29;90.64;93477.50;5048627;28;20419;-79
2023/08/22 07:00:51;;;;;;;10.30;6.60;;;;;;;25.53;86.32;93481.72;5050355;28;20510;-78
2023/08/22 07:03:19;;;;;;;9.25;7.45;;;;;;;25.69;85.36;93479.56;5049590;28;20049;-78
2023/08/22 07:05:52;;;;;;;11.35;7.90;;;;;;;25.78;84.73;93471.75;5055509;28;20060;-78
2023/08/22 07:08:19;;;;;;;10.13;7.13;;;;;;;26.06;84.64;93485.53;5052421;28;20098;-77
2023/08/22 07:10:45;;;;;;;9.88;6.75;;;;;;;26.23;83.37;93487.53;5051271;28;20496;-78
2023/08/22 07:13:15;;;;;;;15.32;8.48;;;;;;;26.35;83.42;93481.72;5054455;28;20099;-77
2023/08/22 07:15:43;;;;;;;14.27;8.02;;;;;;;26.53;82.09;93487.81;5051189;28;20111;-79
2023/08/22 07:18:09;;;;;;;12.60;7.80;;;;;;;26.83;81.63;93481.28;5049553;28;20056;-78
2023/08/22 07:20:36;;;;;;;12.70;7.38;;;;;;;27.04;78.27;93479.63;5051713;28;20595;-78
2023/08/22 07:23:04;;;;;;;11.25;7.30;;;;;;;27.34;77.78;93482.47;5050720;28;20102;-77
2023/08/22 07:25:31;;;;;;;9.40;6.70;;;;;;;27.62;76.90;93484.06;5049373;28;20052;-78
2023/08/22 07:27:58;;;;;;;11.57;7.53;;;;;;;27.83;76.11;93472.88;5051524;28;20534;-78
2023/08/22 07:30:24;;;;;;;9.73;6.47;;;;;;;28.10;74.76;93466.47;5051411;28;20052;-78
2023/08/22 07:32:51;;;;;;;9.93;6.85;;;;;;;28.31;73.59;93475.63;5048437;28;20159;-77
2023/08/22 07:35:18;;;;;;;9.27;7.07;;;;;;;28.40;72.37;93469.22;5049239;28;20040;-77
2023/08/22 07:37:45;;;;;;;9.73;6.45;;;;;;;28.47;72.12;93463.41;5049364;28;20055;-77
2023/08/22 07:40:16;;;;;;;25.75;7.65;;;;;;;28.79;72.46;93465.78;5047442;28;20080;-78
2023/08/22 07:42:43;;;;;;;10.65;6.97;;;;;;;28.99;70.30;93466.97;5049673;28;20571;-78
2023/08/22 07:45:10;;;;;;;13.30;6.57;;;;;;;29.22;68.62;93453.44;5050706;28;20052;-78
2023/08/22 07:47:37;;;;;;;8.70;6.45;;;;;;;29.26;67.23;93469.44;5053110;28;20056;-77
2023/08/22 07:50:04;;;;;;;8.82;7.18;;;;;;;29.23;67.81;93467.41;5049671;28;20114;-78
2023/08/22 07:52:31;;;;;;;12.10;6.50;;;;;;;29.29;67.17;93471.44;5068642;28;20072;-78
2023/08/22 07:54:58;;;;;;;13.38;6.53;;;;;;;29.62;67.47;93469.97;5058084;28;20094;-78
2023/08/22 07:57:26;;;;;;;14.13;6.28;;;;;;;29.42;64.73;93472.28;5050880;28;20091;-77
2023/08/22 07:59:53;;;;;;;9.32;6.68;;;;;;;29.47;65.47;93472.06;5063728;28;20872;-77
2023/08/22 08:02:20;;;;;;;10.85;6.88;;;;;;;29.14;64.17;93467.47;5057059;28;20106;-77
2023/08/22 08:04:47;;;;;;;8.55;6.32;;;;;;;29.43;64.38;93464.00;5056877;28;20049;-77
2023/08/22 08:07:15;;;;;;;7.85;6.43;;;;;;;29.62;64.24;93465.44;5058569;28;20049;-78
2023/08/22 08:09:41;;;;;;;12.05;5.95;;;;;;;29.20;63.50;93466.97;5054403;28;20056;-78
2023/08/22 08:12:09;;;;;;;9.77;6.03;;;;;;;29.42;65.03;93441.31;5050868;28;20060;-78
2023/08/22 08:14:37;;;;;;;12.23;6.70;;;;;;;29.88;63.88;93459.16;5051791;28;20052;-78
2023/08/22 08:17:04;;;;;;;10.02;6.43;;;;;;;30.30;63.28;93463.59;5050323;28;20098;-78
2023/08/22 08:19:31;;;;;;;15.27;6.85;;;;;;;30.65;63.17;93457.88;5060977;28;20060;-78
2023/08/22 08:21:57;;;;;;;13.55;6.38;;;;;;;30.98;61.37;93466.06;5051014;28;20053;-78
2023/08/22 08:24:24;;;;;;;8.80;6.63;;;;;;;31.20;58.40;93470.91;5052737;28;20933;-78
2023/08/22 08:26:51;;;;;;;10.15;5.85;;;;;;;30.85;58.09;93465.31;5056755;28;20048;-79
2023/08/22 08:29:18;;;;;;;12.38;5.75;;;;;;;30.89;57.21;93466.19;5049690;28;20117;-78
2023/08/22 08:31:48;;;;;;;11.77;6.47;;;;;;;31.27;59.84;93461.59;5055786;28;20078;-78
2023/08/22 08:34:14;;;;;;;8.30;5.68;;;;;;;31.54;54.45;93460.13;5053704;28;20049;-78
2023/08/22 08:36:41;;;;;;;9.10;5.55;;;;;;;31.88;55.72;93457.25;5053901;28;20083;-78
2023/08/22 08:39:08;;;;;;;10.02;5.88;;;;;;;32.11;54.95;93468.09;5054901;28;20057;-78
2023/08/22 08:41:37;;;;;;;10.55;5.93;;;;;;;32.18;53.75;93454.25;5053963;28;20053;-78
2023/08/22 08:44:06;;;;;;;8.07;5.25;;;;;;;32.32;50.88;93459.13;5052903;28;20091;-78
2023/08/22 08:46:33;;;;;;;7.40;5.05;;;;;;;31.54;49.64;93460.13;5052059;28;20621;-78
2023/08/22 08:49:03;;;;;;;6.75;5.10;;;;;;;31.08;51.39;93449.72;5051250;28;20045;-77
2023/08/22 08:51:30;;;;;;;5.63;3.88;;;;;;;30.30;50.98;93429.16;5050958;28;20056;-77
2023/08/22 08:53:58;;;;;;;7.38;4.28;;;;;;;30.54;50.11;93448.81;5052057;28;20048;-77
2023/08/22 08:56:24;;;;;;;8.00;4.53;;;;;;;30.83;51.93;93455.06;5050975;28;20500;-77
2023/08/22 08:58:51;;;;;;;9.15;4.90;;;;;;;30.64;52.25;93451.03;5049962;28;20076;-77
2023/08/22 09:01:19;;;;;;;7.10;4.45;;;;;;;30.70;51.95;93448.97;5052996;28;20095;-77
2023/08/22 09:03:46;;;;;;;6.15;4.28;;;;;;;30.91;50.13;93453.41;5054817;28;20094;-77
2023/08/22 09:06:14;;;;;;;5.28;4.22;;;;;;;31.14;47.05;93450.25;5050489;28;20045;-77
2023/08/22 09:08:41;;;;;;;7.47;4.40;;;;;;;31.03;46.46;93453.38;5051474;28;20044;-77
2023/08/22 09:11:08;;;;;;;5.38;4.35;;;;;;;30.80;46.40;93445.09;5053133;28;20060;-78
2023/08/22 09:13:36;;;;;;;6.32;4.32;;;;;;;30.71;47.42;93447.09;5050908;28;20080;-78
2023/08/22 09:16:02;;;;;;;9.05;4.53;;;;;;;30.86;47.30;93453.63;5055055;28;20052;-77
2023/08/22 09:18:29;;;;;;;9.35;4.60;;;;;;;30.99;47.29;93447.19;5050606;28;20568;-77
2023/08/22 09:21:03;;;;;;;9.63;4.88;;;;;;;30.99;46.60;93443.75;5052202;28;20048;-77
2023/08/22 09:23:32;;;;;;;5.13;4.10;;;;;;;30.76;45.31;93446.84;5050131;28;20459;-77
2023/08/22 09:26:00;;;;;;;8.07;3.97;;;;;;;30.94;43.74;93444.75;5051129;28;20107;-76
2023/08/22 09:28:27;;;;;;;6.20;4.03;;;;;;;31.04;44.27;93441.66;5051627;28;20053;-77
2023/08/22 09:30:54;;;;;;;6.47;4.40;;;;;;;31.09;44.02;93445.19;5049526;28;20082;-76
2023/08/22 09:33:21;;;;;;;4.90;3.67;;;;;;;30.76;44.24;93438.91;5052011;28;20067;-77
2023/08/22 09:35:48;;;;;;;5.47;4.03;;;;;;;30.78;44.57;93436.72;5052148;28;20052;-76
2023/08/22 09:38:15;;;;;;;6.93;4.22;;;;;;;30.67;45.40;93426.53;5053362;28;20052;-76
2023/08/22 09:40:55;;;;;;;8.38;4.88;;;;;;;30.92;45.87;93413.25;5052548;28;20090;-77
2023/08/22 09:43:23;;;;;;;7.85;4.05;;;;;;;31.22;43.37;93433.44;5050050;28;20399;-76
2023/08/22 09:45:52;;;;;;;5.53;4.10;;;;;;;31.25;44.18;93437.28;5053399;28;20052;-76
2023/08/22 09:48:25;;;;;;;5.68;3.85;;;;;;;30.87;42.33;93440.00;5049731;28;20045;-76
2023/08/22 09:50:57;;;;;;;5.47;4.15;;;;;;;31.32;44.02;93434.88;5052448;28;20045;-77
2023/08/22 09:53:25;;;;;;;6.68;4.10;;;;;;;31.11;43.24;93429.69;5056698;28;20049;-76
2023/08/22 09:55:54;;;;;;;5.90;4.20;;;;;;;31.39;43.25;93439.59;5053045;28;20160;-76
2023/08/22 09:58:22;;;;;;;6.85;3.85;;;;;;;31.09;43.05;93423.97;5050256;28;20511;-77
2023/08/22 10:00:51;;;;;;;8.05;3.88;;;;;;;30.91;43.59;93400.34;5049640;28;20424;-78
2023/08/22 10:03:17;;;;;;;5.93;3.80;;;;;;;31.17;43.88;93423.84;5050001;28;20125;-76
2023/08/22 10:05:46;;;;;;;5.97;3.78;;;;;;;31.28;43.21;93420.75;5050861;28;20052;-76
2023/08/22 10:08:12;;;;;;;5.03;3.80;;;;;;;31.07;41.82;93409.13;5050611;28;20580;-76
2023/08/22 10:10:41;;;;;;;7.72;4.00;;;;;;;31.12;43.53;93420.63;5048168;28;20048;-76
2023/08/22 10:13:11;;;;;;;5.28;4.10;;;;;;;31.00;42.74;93410.84;5050495;28;20058;-76
2023/08/22 10:15:39;;;;;;;4.70;3.72;;;;;;;31.36;43.08;93403.91;5048911;28;20052;-76
2023/08/22 10:18:06;;;;;;;5.55;3.70;;;;;;;31.32;43.39;93403.81;5048808;28;20056;-76
2023/08/22 10:20:35;;;;;;;7.05;3.97;;;;;;;31.65;41.39;93411.88;5049702;28;20061;-76
2023/08/22 10:23:02;;;;;;;6.22;3.88;;;;;;;31.69;41.65;93415.38;5050389;28;20721;-76
2023/08/22 10:25:47;;;;;;;5.60;3.58;;;;;;;31.73;40.77;93416.25;5051304;28;20047;-75
2023/08/22 10:28:16;;;;;;;5.90;3.28;;;;;;;31.54;40.98;93403.59;5048877;28;20052;-76
2023/08/22 10:31:03;;;;;;;5.25;3.80;;;;;;;31.49;40.96;93407.28;5049872;28;20053;-76
2023/08/22 10:33:30;;;;;;;5.82;3.60;;;;;;;31.88;40.33;93390.84;5049537;28;20044;-76
2023/08/22 10:36:05;;;;;;;4.78;3.60;;;;;;;32.21;41.38;93389.75;5052151;28;20044;-76
2023/08/22 10:38:53;;;;;;;7.05;3.90;;;;;;;31.93;40.41;93387.19;5057047;28;20041;-76
2023/08/22 10:41:23;;;;;;;4.10;2.85;;;;;;;31.25;40.52;93358.47;5057356;28;20508;-75
2023/08/22 10:43:55;;;;;;;6.35;4.20;;;;;;;31.75;40.26;93389.34;5048481;28;20827;-76
2023/08/22 10:47:04;;;;;;;5.13;3.40;;;;;;;31.98;41.78;93390.34;5055722;28;20052;-76
2023/08/22 10:49:31;;;;;;;5.43;3.97;;;;;;;31.81;40.88;93386.13;5048989;28;20063;-75
2023/08/22 10:52:04;;;;;;;5.10;3.70;;;;;;;31.61;40.77;93390.53;5050734;28;20055;-76
2023/08/22 10:54:31;;;;;;;5.15;3.75;;;;;;;31.81;40.01;93386.13;5049646;28;20056;-76
2023/08/22 10:57:19;;;;;;;6.45;3.38;;;;;;;32.16;40.19;93379.38;5050490;28;20080;-76
2023/08/22 11:00:07;;;;;;;4.88;3.65;;;;;;;32.26;41.24;93392.16;5050095;28;20052;-76
2023/08/22 11:02:37;;;;;;;5.10;4.00;;;;;;;32.25;40.11;93382.66;5050040;28;20413;-75
2023/08/22 11:05:08;;;;;;;9.45;4.53;;;;;;;32.39;39.69;93378.78;5056070;28;20098;-76
2023/08/22 11:07:35;;;;;;;5.45;3.83;;;;;;;31.80;40.28;93395.19;5057114;28;20056;-75
2023/08/22 11:10:02;;;;;;;5.45;3.63;;;;;;;31.67;40.68;93386.53;5048266;28;20052;-75
2023/08/22 11:12:29;;;;;;;7.35;3.75;;;;;;;31.56;40.93;93380.16;5051048;28;21163;-76
2023/08/22 11:14:57;;;;;;;4.65;3.65;;;;;;;31.99;40.74;93381.25;5053856;28;20053;-76
2023/08/22 11:17:25;;;;;;;5.82;3.67;;;;;;;32.01;39.04;93380.19;5045749;28;20453;-75
2023/08/22 11:19:54;;;;;;;5.97;3.90;;;;;;;32.28;39.53;93372.44;5051280;28;20094;-76
2023/08/22 11:22:21;;;;;;;5.90;3.83;;;;;;;32.25;39.54;93371.25;5048059;28;20057;-76
2023/08/22 11:24:52;;;;;;;5.18;3.88;;;;;;;32.58;39.38;93380.00;5047264;28;20503;-76
2023/08/22 11:27:19;;;;;;;6.03;3.90;;;;;;;33.09;39.98;93379.19;5050795;28;20643;-76